Time;durP1;ratioP1;P1;durP2;ratioP2;P2;SDS_P1;SDS_P2;PMS_P1;PMS_P2;Temp;Humidity;BMP_temperature;BMP_pressure;BME280_temperature;BME280_humidity;BME280_pressure;Samples;Min_cycle;Max_cycle;Signal;HPM_P1;HPM_P2
2021/12/20 00:01:52;;;;;;;14.18;4.47;;;;;;;2.84;76.70;101478.28;8601857;33;20154;-77
2021/12/20 00:06:55;;;;;;;23.75;4.95;;;;;;;2.97;77.08;101482.28;8601584;33;20545;-76
2021/12/20 00:11:59;;;;;;;16.20;6.30;;;;;;;3.13;76.96;101479.16;8601343;33;20534;-76
2021/12/20 00:17:03;;;;;;;15.43;5.82;;;;;;;3.26;76.71;101486.66;8601056;33;20652;-76
2021/12/20 00:22:06;;;;;;;13.63;5.78;;;;;;;3.35;76.28;101484.63;8602242;33;20948;-77
2021/12/20 00:27:13;;;;;;;18.83;4.80;;;;;;;3.45;76.16;101486.88;8610314;33;20427;-75
2021/12/20 00:32:16;;;;;;;14.95;4.43;;;;;;;3.44;75.71;101484.28;8599009;33;20200;-76
2021/12/20 00:42:42;;;;;;;16.10;4.97;;;;;;;3.47;75.20;101489.50;8622354;33;20611;-76
2021/12/20 00:47:45;;;;;;;20.80;5.90;;;;;;;3.59;75.25;101488.22;8600259;33;20180;-76
2021/12/20 00:52:49;;;;;;;12.40;4.95;;;;;;;3.70;75.26;101497.56;8598522;33;20438;-76
2021/12/20 00:57:58;;;;;;;22.08;7.25;;;;;;;3.71;74.99;101503.75;8620644;33;20338;-76
2021/12/20 01:03:03;;;;;;;17.73;5.00;;;;;;;3.73;75.40;101500.13;8597951;33;20192;-76
2021/12/20 01:08:08;;;;;;;23.48;5.65;;;;;;;3.79;75.39;101499.03;8766054;33;20588;-76
2021/12/20 01:13:15;;;;;;;18.25;5.20;;;;;;;3.65;75.31;101503.97;8771407;33;20729;-76
2021/12/20 01:18:21;;;;;;;13.93;5.10;;;;;;;3.61;75.54;101504.97;8771650;33;20189;-76
2021/12/20 01:23:24;;;;;;;11.07;4.90;;;;;;;3.50;75.87;101495.56;8771147;33;20284;-77
2021/12/20 01:28:28;;;;;;;20.52;6.25;;;;;;;3.41;76.21;101503.84;8771396;33;20252;-76
2021/12/20 01:33:31;;;;;;;20.90;5.20;;;;;;;3.28;76.39;101510.50;8771047;33;20143;-76
2021/12/20 01:38:35;;;;;;;22.45;5.88;;;;;;;3.20;77.15;101509.88;8772829;33;20239;-77
2021/12/20 01:43:39;;;;;;;21.17;5.07;;;;;;;3.19;77.45;101513.47;8770390;33;20258;-76
2021/12/20 01:48:44;;;;;;;20.65;6.00;;;;;;;3.06;77.50;101513.84;8745718;33;20143;-76
2021/12/20 01:53:47;;;;;;;16.90;5.63;;;;;;;2.97;77.68;101521.22;8770792;33;20835;-77
2021/12/20 01:58:52;;;;;;;19.15;5.82;;;;;;;2.86;78.40;101516.25;8770446;33;20845;-77
2021/12/20 02:03:59;;;;;;;16.65;6.32;;;;;;;2.81;78.41;101529.66;8772061;33;20613;-77
2021/12/20 02:09:08;;;;;;;27.30;6.63;;;;;;;2.84;78.39;101526.91;8776178;33;21905;-77
2021/12/20 02:14:14;;;;;;;20.92;5.78;;;;;;;2.83;78.98;101537.59;8775877;33;20240;-77
2021/12/20 02:19:19;;;;;;;18.00;6.30;;;;;;;2.81;79.06;101529.66;8775280;33;20253;-77
2021/12/20 02:24:24;;;;;;;28.52;6.88;;;;;;;2.87;79.53;101527.75;8775976;33;20190;-77
2021/12/20 02:29:42;;;;;;;25.15;7.38;;;;;;;3.00;79.53;101532.63;8775083;33;20848;-77
2021/12/20 02:40:09;;;;;;;23.75;7.65;;;;;;;2.83;79.37;101525.19;8775089;33;20197;-77
2021/12/20 02:45:14;;;;;;;24.27;8.07;;;;;;;2.68;79.40;101525.63;8774883;33;20187;-77
2021/12/20 02:50:17;;;;;;;26.92;8.10;;;;;;;2.57;79.51;101525.94;8776139;33;20139;-77
2021/12/20 02:55:22;;;;;;;27.70;8.40;;;;;;;2.49;80.12;101524.41;8762220;33;20809;-77
2021/12/20 03:00:25;;;;;;;26.23;8.07;;;;;;;2.57;80.18;101530.38;8691135;33;20187;-77
2021/12/20 03:05:28;;;;;;;27.17;8.25;;;;;;;2.61;80.51;101513.47;8715887;33;20252;-77
2021/12/20 03:10:34;;;;;;;23.83;8.07;;;;;;;2.60;80.46;101525.00;8715739;33;20262;-77
2021/12/20 03:15:37;;;;;;;27.10;7.70;;;;;;;2.38;80.98;101522.06;8715252;33;20203;-77
2021/12/20 03:20:41;;;;;;;28.38;8.43;;;;;;;2.39;80.91;101524.69;8716205;33;20212;-77
2021/12/20 03:25:45;;;;;;;22.90;8.05;;;;;;;2.57;81.01;101535.69;8715911;33;20541;-77
2021/12/20 03:30:49;;;;;;;21.05;7.40;;;;;;;2.70;80.86;101526.47;8715666;33;20354;-77
2021/12/20 03:35:52;;;;;;;19.65;7.05;;;;;;;2.79;80.81;101523.53;8715325;33;20634;-77
2021/12/20 03:40:56;;;;;;;26.02;8.15;;;;;;;2.84;80.64;101539.31;8715044;33;20152;-77
2021/12/20 03:46:00;;;;;;;26.02;9.88;;;;;;;2.82;80.52;101533.19;8714680;33;20269;-77
2021/12/20 03:51:05;;;;;;;28.73;9.15;;;;;;;2.85;80.66;101538.38;8714867;33;20880;-77
2021/12/20 03:56:09;;;;;;;31.75;11.02;;;;;;;2.89;80.53;101539.19;8716077;33;20987;-77
2021/12/20 04:01:14;;;;;;;29.38;8.93;;;;;;;2.95;80.34;101537.19;8690185;33;20241;-77
2021/12/20 04:06:17;;;;;;;27.83;9.52;;;;;;;2.93;80.31;101532.84;8713709;33;20638;-77
2021/12/20 04:11:21;;;;;;;30.85;9.88;;;;;;;2.94;80.26;101531.94;8715386;33;20546;-77
2021/12/20 04:16:25;;;;;;;21.77;8.90;;;;;;;2.93;80.05;101543.47;8716658;33;20318;-77
2021/12/20 04:21:28;;;;;;;25.90;8.27;;;;;;;2.80;79.41;101543.00;8689463;33;20697;-77
2021/12/20 04:26:33;;;;;;;34.38;10.10;;;;;;;2.74;79.64;101545.81;8714245;33;20497;-77
2021/12/20 04:31:36;;;;;;;23.08;9.75;;;;;;;2.71;79.63;101538.81;8714877;33;20206;-77
2021/12/20 04:36:39;;;;;;;24.75;9.10;;;;;;;2.64;79.08;101544.38;8714735;33;20223;-77
2021/12/20 04:41:44;;;;;;;25.90;9.68;;;;;;;2.49;79.05;101550.94;8714890;33;20195;-77
2021/12/20 04:46:47;;;;;;;25.92;9.98;;;;;;;2.57;79.51;101555.13;8715069;33;20296;-77
2021/12/20 04:51:51;;;;;;;28.17;9.82;;;;;;;2.64;78.68;101549.66;8689648;33;20247;-77
2021/12/20 04:56:55;;;;;;;28.17;9.20;;;;;;;2.54;78.27;101555.22;8713716;33;20278;-77
2021/12/20 05:01:58;;;;;;;26.27;9.35;;;;;;;2.58;79.13;101553.38;8713639;33;20136;-76
2021/12/20 05:07:02;;;;;;;27.98;9.85;;;;;;;2.51;78.99;101555.28;8716798;33;20758;-77
2021/12/20 05:12:12;;;;;;;26.92;9.07;;;;;;;2.42;78.61;101554.69;8717062;33;21596;-77
2021/12/20 05:17:15;;;;;;;23.52;10.13;;;;;;;2.37;78.73;101552.16;8692347;33;20183;-76
2021/12/20 05:22:19;;;;;;;31.50;10.10;;;;;;;2.27;78.71;101555.97;8745895;33;20156;-77
2021/12/20 05:27:23;;;;;;;29.63;9.68;;;;;;;2.08;78.72;101537.91;8763600;33;20207;-76
2021/12/20 05:32:26;;;;;;;28.25;10.18;;;;;;;1.94;79.23;101554.19;8730808;33;20473;-77
2021/12/20 05:37:29;;;;;;;18.77;7.97;;;;;;;1.90;78.96;101563.16;8718247;33;20141;-77
2021/12/20 05:42:34;;;;;;;26.70;10.18;;;;;;;1.85;79.05;101580.94;8714744;33;20618;-76
2021/12/20 05:47:37;;;;;;;29.52;10.25;;;;;;;1.89;79.01;101582.63;8689725;33;20337;-77
2021/12/20 05:52:41;;;;;;;33.63;10.98;;;;;;;1.56;79.70;101594.91;8713760;33;20149;-77
2021/12/20 05:57:46;;;;;;;37.58;12.02;;;;;;;1.46;79.86;101593.41;8714103;33;20211;-76
2021/12/20 06:02:51;;;;;;;43.03;11.13;;;;;;;1.42;80.33;101600.53;8714321;33;20372;-77
2021/12/20 06:07:56;;;;;;;133.98;25.63;;;;;;;1.58;80.54;101598.38;8714140;33;20172;-76
2021/12/20 06:13:01;;;;;;;34.65;12.20;;;;;;;1.63;80.31;101596.50;8714608;33;20186;-76
2021/12/20 06:18:04;;;;;;;42.00;11.95;;;;;;;1.73;80.46;101611.28;8689210;33;20180;-76
2021/12/20 06:23:07;;;;;;;30.75;11.68;;;;;;;1.75;80.21;101613.88;8689739;33;20294;-77
2021/12/20 06:28:11;;;;;;;43.03;14.60;;;;;;;1.63;79.74;101612.41;8713432;33;20217;-77
2021/12/20 06:33:15;;;;;;;69.57;15.07;;;;;;;0.84;82.16;101617.72;8712936;33;21675;-77
2021/12/20 06:38:20;;;;;;;38.70;12.60;;;;;;;0.97;81.31;101627.13;8712730;33;20164;-77
2021/12/20 06:43:24;;;;;;;44.22;14.10;;;;;;;1.12;80.42;101641.81;8712478;33;20237;-77
2021/12/20 06:48:28;;;;;;;34.90;11.95;;;;;;;1.20;81.17;101645.16;8713174;33;20268;-77
2021/12/20 06:53:31;;;;;;;31.42;11.95;;;;;;;1.36;80.55;101652.78;8714603;33;20191;-77
2021/12/20 06:58:35;;;;;;;33.53;12.90;;;;;;;0.94;80.27;101644.88;8717587;33;20179;-77
2021/12/20 07:03:38;;;;;;;40.95;12.63;;;;;;;1.09;80.73;101656.88;8717943;33;20534;-77
2021/12/20 07:08:44;;;;;;;41.95;13.90;;;;;;;1.11;80.48;101655.09;8717794;33;20231;-77
2021/12/20 07:13:48;;;;;;;42.03;12.88;;;;;;;1.02;80.02;101653.50;8717335;33;20191;-77
2021/12/20 07:18:51;;;;;;;42.20;12.35;;;;;;;0.98;80.28;101657.13;8716737;33;20240;-77
2021/12/20 07:23:54;;;;;;;68.88;15.80;;;;;;;0.75;81.19;101657.59;8732047;33;20159;-77
2021/12/20 07:28:59;;;;;;;45.70;13.13;;;;;;;1.03;81.46;101668.47;8751921;33;20186;-77
2021/12/20 07:34:02;;;;;;;87.32;15.63;;;;;;;0.77;80.98;101669.03;8751209;33;20494;-77
2021/12/20 07:39:07;;;;;;;39.45;10.48;;;;;;;0.64;81.09;101670.16;8712666;33;21645;-76
2021/12/20 07:44:28;;;;;;;63.42;12.40;;;;;;;0.48;81.57;101667.78;8716256;33;20195;-77
2021/12/20 07:49:33;;;;;;;65.72;13.65;;;;;;;0.44;81.61;101663.47;8737672;33;20186;-77
2021/12/20 07:54:37;;;;;;;32.40;9.85;;;;;;;0.15;82.75;101670.16;8743311;33;20285;-77
2021/12/20 07:59:41;;;;;;;56.95;11.95;;;;;;;0.52;82.54;101669.50;8746720;33;20187;-77
2021/12/20 08:04:49;;;;;;;48.75;11.98;;;;;;;0.41;82.26;101665.28;8728182;33;20183;-76
2021/12/20 08:09:52;;;;;;;48.15;10.25;;;;;;;0.42;82.11;101675.84;8766970;33;20799;-77
2021/12/20 08:14:57;;;;;;;19.38;7.97;;;;;;;0.05;82.12;101679.13;8718220;33;20606;-77
2021/12/20 08:20:00;;;;;;;48.33;10.10;;;;;;;0.37;82.27;101694.44;8716624;33;20218;-77
2021/12/20 08:25:05;;;;;;;41.90;9.65;;;;;;;0.61;82.32;101697.53;8716041;33;20140;-77
2021/12/20 08:30:10;;;;;;;38.63;9.13;;;;;;;1.00;82.76;101708.25;8758139;33;20934;-76
2021/12/20 08:35:14;;;;;;;30.65;9.73;;;;;;;1.27;80.69;101707.66;8773901;33;21569;-77
2021/12/20 08:40:18;;;;;;;13.52;6.15;;;;;;;0.91;78.87;101719.88;8749205;33;21347;-76
2021/12/20 08:45:23;;;;;;;9.83;5.00;;;;;;;1.00;78.82;101717.03;8774370;33;20357;-77
2021/12/20 08:50:26;;;;;;;12.38;5.82;;;;;;;0.65;79.22;101717.72;8773502;33;20637;-77
2021/12/20 08:55:29;;;;;;;31.83;8.07;;;;;;;0.98;79.74;101724.13;8775972;33;20286;-77
2021/12/20 09:00:36;;;;;;;48.88;9.73;;;;;;;0.01;81.06;101734.69;8773178;33;20201;-76
2021/12/20 09:05:39;;;;;;;69.78;11.88;;;;;;;0.55;80.24;101726.72;8773189;33;20162;-77
2021/12/20 09:10:43;;;;;;;23.40;6.75;;;;;;;0.65;80.32;101741.53;8772720;33;20143;-76
2021/12/20 09:15:50;;;;;;;15.43;6.35;;;;;;;0.98;79.16;101742.66;8767537;27;20633;-78
2021/12/20 09:20:53;;;;;;;88.60;15.90;;;;;;;1.07;78.54;101749.56;8753331;33;20294;-78
2021/12/20 09:25:57;;;;;;;19.27;7.03;;;;;;;0.86;78.52;101745.56;8765217;33;20144;-78
2021/12/20 09:31:04;;;;;;;35.92;8.25;;;;;;;0.61;78.64;101748.66;8762831;33;20444;-78
2021/12/20 09:36:08;;;;;;;32.20;7.28;;;;;;;0.52;79.63;101751.47;8761835;33;20156;-78
2021/12/20 09:41:27;;;;;;;56.72;11.40;;;;;;;0.66;79.39;101756.50;8764792;33;20185;-78
2021/12/20 09:46:32;;;;;;;54.53;10.93;;;;;;;1.15;79.56;101759.97;8764261;33;20144;-78
2021/12/20 09:51:36;;;;;;;33.42;9.10;;;;;;;1.39;78.40;101766.56;8762146;33;20143;-77
2021/12/20 09:56:40;;;;;;;33.25;8.60;;;;;;;1.48;77.72;101767.25;8737919;33;20148;-79
2021/12/20 10:01:48;;;;;;;36.33;9.05;;;;;;;1.52;76.54;101765.41;8761978;33;20383;-79
2021/12/20 10:06:54;;;;;;;38.90;10.73;;;;;;;1.67;76.71;101762.44;8762280;33;20478;-79
2021/12/20 10:12:16;;;;;;;40.92;9.60;;;;;;;1.72;76.17;101768.47;8737187;33;20484;-79
2021/12/20 10:17:23;;;;;;;19.88;6.72;;;;;;;1.72;75.53;101762.31;8761282;33;20124;-80
2021/12/20 10:22:30;;;;;;;19.70;6.85;;;;;;;1.52;75.47;101761.91;8737329;33;20159;-79
2021/12/20 10:27:35;;;;;;;27.02;8.52;;;;;;;1.62;76.38;101766.97;8765531;33;20155;-79
2021/12/20 10:32:44;;;;;;;18.98;7.20;;;;;;;1.75;75.65;101764.03;8765565;33;20293;-79
2021/12/20 10:37:47;;;;;;;19.40;7.25;;;;;;;1.85;75.56;101763.78;8765821;33;20913;-79
2021/12/20 10:42:52;;;;;;;23.08;8.00;;;;;;;1.88;74.12;101769.00;8741234;33;20133;-79
2021/12/20 10:48:10;;;;;;;40.15;9.55;;;;;;;2.15;74.37;101754.25;8764021;33;20450;-78
2021/12/20 10:53:25;;;;;;;22.27;7.63;;;;;;;1.96;73.31;101760.91;8737815;33;20636;-78
2021/12/20 10:58:36;;;;;;;25.27;6.78;;;;;;;1.47;75.08;101762.84;8760740;33;20147;-78
2021/12/20 11:03:42;;;;;;;20.20;7.20;;;;;;;1.68;75.18;101756.22;8760250;33;20420;-79
2021/12/20 11:09:05;;;;;;;30.70;8.70;;;;;;;2.21;74.91;101757.66;8764138;33;20144;-79
2021/12/20 11:14:10;;;;;;;13.35;6.05;;;;;;;2.29;73.54;101745.94;8764634;33;20240;-77
2021/12/20 11:19:28;;;;;;;20.42;6.60;;;;;;;2.05;72.86;101747.41;8738735;33;20143;-79
2021/12/20 11:24:36;;;;;;;13.00;7.10;;;;;;;1.84;73.96;101748.81;8739304;33;20206;-79
2021/12/20 11:29:42;;;;;;;13.77;6.57;;;;;;;2.10;72.39;101740.22;8738353;33;20160;-79
2021/12/20 11:34:47;;;;;;;17.40;7.03;;;;;;;2.26;73.04;101742.50;8784007;33;20144;-79
2021/12/20 11:39:51;;;;;;;13.10;7.20;;;;;;;2.62;71.76;101746.03;8773396;33;20144;-78
2021/12/20 11:44:57;;;;;;;17.90;6.13;;;;;;;1.69;73.03;101763.25;8762814;33;20143;-78
2021/12/20 11:50:08;;;;;;;13.10;5.85;;;;;;;1.82;72.84;101755.91;8761873;33;20570;-78
2021/12/20 11:55:19;;;;;;;18.30;6.57;;;;;;;1.38;73.74;101749.81;8762001;33;20653;-77
2021/12/20 12:00:29;;;;;;;11.20;6.22;;;;;;;1.56;74.11;101750.31;8736792;33;20148;-77
2021/12/20 12:05:39;;;;;;;12.25;6.07;;;;;;;2.03;74.44;101743.06;8737474;33;20205;-79
2021/12/20 12:10:42;;;;;;;11.30;6.30;;;;;;;4.31;70.87;101730.41;8735873;33;20467;-77
2021/12/20 12:16:01;;;;;;;13.00;6.63;;;;;;;6.07;64.32;101728.34;8734552;33;20489;-76
2021/12/20 12:21:07;;;;;;;10.18;5.93;;;;;;;6.95;58.86;101725.50;8733981;33;20726;-77
2021/12/20 12:26:33;;;;;;;11.63;6.35;;;;;;;7.75;55.48;101721.81;8735723;33;20416;-79
2021/12/20 12:31:57;;;;;;;9.43;5.80;;;;;;;7.82;55.79;101726.81;8744935;33;20147;-77
2021/12/20 12:37:23;;;;;;;10.30;5.65;;;;;;;8.58;53.74;101714.13;8754810;33;20561;-77
2021/12/20 12:42:50;;;;;;;11.38;5.53;;;;;;;8.89;51.62;101712.50;8761019;33;20435;-77
2021/12/20 12:47:59;;;;;;;10.75;6.00;;;;;;;9.21;50.54;101702.72;8755003;33;20824;-79
2021/12/20 12:53:03;;;;;;;9.57;5.68;;;;;;;9.86;49.15;101700.03;8760890;33;20168;-80
2021/12/20 12:58:23;;;;;;;10.23;5.93;;;;;;;10.17;49.14;101692.88;8759710;33;20124;-80
2021/12/20 13:03:28;;;;;;;12.48;6.85;;;;;;;10.65;48.35;101690.91;8766128;33;20159;-80
2021/12/20 13:08:32;;;;;;;15.65;9.13;;;;;;;10.63;48.30;101690.13;8765458;33;20462;-80
2021/12/20 13:13:42;;;;;;;18.65;10.60;;;;;;;10.40;48.44;101686.16;8766409;33;20198;-80
2021/12/20 13:18:47;;;;;;;20.00;11.90;;;;;;;9.64;50.58;101691.44;8742431;33;20152;-79
2021/12/20 13:23:52;;;;;;;12.68;6.53;;;;;;;9.15;51.18;101696.84;8778291;33;20189;-79
2021/12/20 13:28:57;;;;;;;8.48;5.35;;;;;;;8.64;52.08;101695.97;8752310;33;20132;-80
2021/12/20 13:34:04;;;;;;;12.32;6.00;;;;;;;8.45;52.74;101694.22;8738865;33;20144;-79
2021/12/20 13:39:12;;;;;;;12.73;5.60;;;;;;;8.49;52.54;101694.97;8738737;33;20148;-82
2021/12/20 13:44:20;;;;;;;10.43;5.85;;;;;;;8.23;52.48;101701.59;8738539;33;20152;-79
2021/12/20 13:49:27;;;;;;;9.55;5.90;;;;;;;8.10;52.49;101690.66;8738362;33;20202;-79
2021/12/20 13:54:36;;;;;;;12.43;6.10;;;;;;;7.99;53.20;101693.00;8761970;33;20571;-79
2021/12/20 13:59:49;;;;;;;7.90;5.30;;;;;;;7.94;53.60;101694.09;8738404;33;20166;-79
2021/12/20 14:04:56;;;;;;;9.73;6.05;;;;;;;7.78;53.70;101695.78;8768399;33;20248;-79
2021/12/20 14:10:08;;;;;;;9.85;5.40;;;;;;;7.63;54.26;101688.50;8756010;33;20159;-79
2021/12/20 14:15:16;;;;;;;10.25;5.72;;;;;;;7.77;54.03;101687.84;8740671;33;20151;-79
2021/12/20 14:20:37;;;;;;;8.85;5.70;;;;;;;7.25;55.18;101686.69;8765337;33;20603;-79
2021/12/20 14:25:45;;;;;;;13.00;6.53;;;;;;;7.15;55.42;101685.38;8742047;33;20544;-79
2021/12/20 14:30:53;;;;;;;10.52;5.65;;;;;;;6.77;55.84;101687.06;8765054;33;20423;-79
2021/12/20 14:36:01;;;;;;;10.73;5.72;;;;;;;6.01;57.88;101689.44;8740961;33;20147;-79
2021/12/20 14:41:28;;;;;;;9.40;5.43;;;;;;;5.90;58.69;101694.34;8742251;33;20190;-78
2021/12/20 14:46:36;;;;;;;16.70;8.43;;;;;;;5.43;59.62;101692.63;8768054;33;20492;-79
2021/12/20 14:51:39;;;;;;;34.00;15.10;;;;;;;4.41;61.24;101691.88;8769846;33;20144;-81
2021/12/20 14:56:57;;;;;;;27.55;12.43;;;;;;;3.67;63.95;101701.41;8768182;33;20951;-79
2021/12/20 15:02:10;;;;;;;15.93;8.32;;;;;;;3.30;65.11;101691.06;8770387;33;20144;-79
2021/12/20 15:07:13;;;;;;;23.75;11.68;;;;;;;3.07;66.23;101697.91;8797248;33;20152;-78
2021/12/20 15:12:17;;;;;;;24.10;12.23;;;;;;;2.88;66.72;101694.03;8759675;33;20279;-79
2021/12/20 15:17:20;;;;;;;27.77;11.63;;;;;;;2.59;67.35;101695.72;8797807;28;20147;-74
2021/12/20 15:22:23;;;;;;;16.55;7.80;;;;;;;2.37;68.30;101696.25;8851769;33;20147;-74
2021/12/20 15:27:28;;;;;;;27.55;13.68;;;;;;;2.09;69.43;101705.81;8849102;33;20684;-74
2021/12/20 15:32:31;;;;;;;145.80;59.05;;;;;;;1.87;70.90;101692.22;8873750;33;20662;-74
2021/12/20 15:37:34;;;;;;;88.22;39.67;;;;;;;1.74;71.67;101699.56;8873759;33;20662;-74
2021/12/20 15:42:46;;;;;;;48.83;21.85;;;;;;;1.55;71.85;101704.41;8873708;33;20142;-74
2021/12/20 15:47:49;;;;;;;26.60;15.48;;;;;;;1.48;72.63;101698.41;8874106;33;20146;-74
2021/12/20 15:52:53;;;;;;;19.42;11.30;;;;;;;1.48;72.81;101694.84;8873353;33;20220;-74
2021/12/20 15:58:18;;;;;;;19.95;9.50;;;;;;;1.32;73.39;101699.63;8873154;33;20139;-74
2021/12/20 16:03:21;;;;;;;20.75;10.48;;;;;;;1.19;73.93;101701.66;8873497;33;20139;-74
2021/12/20 16:08:24;;;;;;;21.45;9.98;;;;;;;1.11;74.26;101697.44;8873784;33;20150;-74
2021/12/20 16:13:28;;;;;;;19.52;9.88;;;;;;;0.94;74.41;101697.78;8873209;33;20650;-74
2021/12/20 16:18:31;;;;;;;24.88;10.90;;;;;;;0.82;74.83;101693.59;8872985;33;20204;-74
2021/12/20 16:23:35;;;;;;;26.88;12.82;;;;;;;0.73;75.27;101691.13;8872819;33;20623;-74
2021/12/20 16:28:39;;;;;;;21.67;11.05;;;;;;;0.67;75.59;101685.97;8874040;33;20138;-75
2021/12/20 16:33:42;;;;;;;20.92;10.48;;;;;;;0.51;75.42;101680.97;8872808;33;20441;-74
2021/12/20 16:38:45;;;;;;;27.80;13.07;;;;;;;0.31;75.49;101677.81;8873047;33;20274;-75
2021/12/20 16:43:51;;;;;;;24.23;11.67;;;;;;;0.29;75.93;101684.91;8872104;33;20569;-74
2021/12/20 16:48:57;;;;;;;24.50;12.50;;;;;;;0.28;76.08;101694.59;8872778;33;20142;-75
2021/12/20 16:54:00;;;;;;;24.50;12.60;;;;;;;0.22;75.87;101694.72;8870819;33;20634;-73
2021/12/20 16:59:04;;;;;;;28.20;13.68;;;;;;;0.10;75.79;101689.63;8871851;33;20239;-73
2021/12/20 17:04:38;;;;;;;22.70;12.80;;;;;;;0.10;75.91;101689.63;8872303;33;20142;-72
2021/12/20 17:09:42;;;;;;;28.70;14.27;;;;;;;-0.11;75.84;101683.81;8871681;33;20436;-73
2021/12/20 17:14:46;;;;;;;16.15;9.43;;;;;;;-0.18;76.02;101690.06;8871962;33;20145;-72
2021/12/20 17:19:49;;;;;;;15.52;9.38;;;;;;;-0.30;75.69;101700.84;8870789;33;21064;-74
2021/12/20 17:24:52;;;;;;;13.60;9.43;;;;;;;-0.42;75.74;101691.31;8871515;33;20218;-73
2021/12/20 17:29:56;;;;;;;17.52;11.00;;;;;;;-0.52;76.13;101690.56;8870884;33;20425;-73
2021/12/20 17:34:59;;;;;;;22.13;12.43;;;;;;;-0.43;76.07;101699.25;8871074;33;20176;-74
2021/12/20 17:40:04;;;;;;;25.07;15.07;;;;;;;-0.55;75.72;101709.09;8873077;33;20219;-73
2021/12/20 17:45:10;;;;;;;87.87;46.53;;;;;;;-0.72;75.46;101696.09;8872979;33;20720;-73
2021/12/20 17:50:20;;;;;;;43.87;25.97;;;;;;;-0.80;75.71;101699.75;8870801;33;20627;-73
2021/12/20 17:55:23;;;;;;;22.27;12.03;;;;;;;-0.86;75.96;101700.69;8870798;33;20172;-73
2021/12/20 18:00:29;;;;;;;27.40;16.83;;;;;;;-0.96;75.62;101699.06;8869830;33;20241;-73
2021/12/20 18:05:33;;;;;;;23.40;14.70;;;;;;;-0.93;75.63;101700.78;8874291;33;20139;-73
2021/12/20 18:10:39;;;;;;;18.43;11.80;;;;;;;-0.88;75.59;101707.75;8801145;33;20666;-73
2021/12/20 18:15:45;;;;;;;22.63;11.53;;;;;;;-0.93;75.69;101703.41;8713749;33;20423;-74
2021/12/20 18:20:48;;;;;;;42.97;21.67;;;;;;;-1.00;75.94;101713.19;8718678;33;20541;-73
2021/12/20 18:25:51;;;;;;;30.20;15.37;;;;;;;-1.01;75.63;101722.88;8713415;33;20509;-73
2021/12/20 18:30:56;;;;;;;39.23;20.73;;;;;;;-1.06;75.76;101718.53;8713436;33;20900;-73
2021/12/20 18:35:59;;;;;;;20.23;13.10;;;;;;;-1.11;75.38;101715.94;8713640;33;20146;-74
2021/12/20 18:41:03;;;;;;;18.43;13.20;;;;;;;-1.13;75.66;101722.13;8710184;33;20677;-74
2021/12/20 18:46:08;;;;;;;21.23;13.50;;;;;;;-1.23;75.32;101718.75;8684718;33;20182;-74
2021/12/20 18:51:13;;;;;;;26.60;13.43;;;;;;;-1.33;75.46;101723.22;8703537;33;20452;-74
2021/12/20 18:56:16;;;;;;;15.03;10.37;;;;;;;-1.48;75.17;101731.25;8701982;33;20631;-74
2021/12/20 19:01:20;;;;;;;24.33;13.33;;;;;;;-1.56;75.38;101730.47;8703438;33;20610;-74
2021/12/20 19:06:25;;;;;;;21.00;12.77;;;;;;;-1.67;75.09;101726.19;8702064;33;20238;-74
2021/12/20 19:11:38;;;;;;;18.83;12.00;;;;;;;-1.69;75.54;101733.22;8704384;33;20649;-74
2021/12/20 19:16:46;;;;;;;21.50;11.83;;;;;;;-1.69;75.66;101727.09;8705780;33;20442;-74
2021/12/20 19:21:49;;;;;;;18.07;11.10;;;;;;;-1.69;75.42;101721.81;8680879;33;20142;-74
2021/12/20 19:26:53;;;;;;;12.10;9.23;;;;;;;-1.75;75.47;101732.41;8701812;33;20261;-74
2021/12/20 19:31:57;;;;;;;12.60;9.47;;;;;;;-1.79;75.37;101734.19;8710482;33;20199;-74
2021/12/20 19:37:03;;;;;;;15.30;9.67;;;;;;;-1.81;75.57;101730.72;8713923;33;20408;-74
2021/12/20 19:42:10;;;;;;;18.93;11.30;;;;;;;-1.86;75.60;101736.00;8708319;33;20231;-74
2021/12/20 19:47:15;;;;;;;13.77;10.13;;;;;;;-1.84;75.38;101733.34;8701003;33;20578;-74
2021/12/20 19:52:18;;;;;;;14.47;9.53;;;;;;;-1.88;75.80;101727.22;8698072;33;20926;-74
2021/12/20 19:57:22;;;;;;;24.17;14.10;;;;;;;-1.90;75.52;101725.50;8693649;33;20446;-74
2021/12/20 20:02:27;;;;;;;62.20;27.30;;;;;;;-2.08;76.00;101737.06;8694792;33;20676;-74
2021/12/20 20:07:30;;;;;;;42.70;23.87;;;;;;;-2.16;76.20;101734.47;8697418;33;20167;-74
2021/12/20 20:12:53;;;;;;;25.53;17.10;;;;;;;-2.20;76.06;101732.72;8699096;33;20127;-74
2021/12/20 20:17:57;;;;;;;25.70;13.03;;;;;;;-2.20;76.35;101734.50;8672779;33;20700;-74
2021/12/20 20:23:01;;;;;;;26.70;14.40;;;;;;;-2.16;76.26;101737.09;8698707;33;20424;-74
2021/12/20 20:28:04;;;;;;;17.53;11.70;;;;;;;-2.22;75.98;101734.53;8675985;33;20456;-74
2021/12/20 20:33:09;;;;;;;23.83;14.03;;;;;;;-2.29;75.82;101733.66;8709911;33;21164;-74
2021/12/20 20:38:12;;;;;;;18.73;12.13;;;;;;;-2.30;75.89;101741.59;8711952;33;20630;-74
2021/12/20 20:43:15;;;;;;;20.97;12.37;;;;;;;-2.35;75.92;101735.47;8701027;33;20191;-74
2021/12/20 20:48:19;;;;;;;21.80;12.63;;;;;;;-2.31;76.04;101737.19;8705292;33;20142;-74
2021/12/20 20:53:23;;;;;;;16.77;11.00;;;;;;;-2.32;76.00;101736.31;8701118;33;20415;-74
2021/12/20 20:58:26;;;;;;;17.43;10.33;;;;;;;-2.35;75.86;101727.59;8700909;33;20264;-75
2021/12/20 21:03:30;;;;;;;16.57;11.37;;;;;;;-2.40;75.70;101722.34;8700942;33;20207;-74
2021/12/20 21:08:33;;;;;;;15.07;9.17;;;;;;;-2.51;75.66;101734.69;8699632;33;20408;-74
2021/12/20 21:13:36;;;;;;;18.33;9.80;;;;;;;-2.56;75.46;101726.81;8701470;33;20556;-74
2021/12/20 21:18:41;;;;;;;12.57;9.10;;;;;;;-2.59;75.94;101724.19;8647807;28;20584;-77
2021/12/20 21:23:44;;;;;;;15.23;9.40;;;;;;;-2.71;75.43;101718.09;8531118;33;20152;-77
2021/12/20 21:28:47;;;;;;;13.80;10.10;;;;;;;-2.77;75.45;101719.00;8515624;33;20597;-76
2021/12/20 21:33:51;;;;;;;15.77;10.00;;;;;;;-2.80;75.62;101714.66;8516210;33;20570;-77
2021/12/20 21:38:54;;;;;;;19.73;11.53;;;;;;;-2.88;75.73;101719.09;8541202;33;20915;-78
2021/12/20 21:43:58;;;;;;;15.70;9.20;;;;;;;-2.89;76.12;101719.94;8544875;33;20148;-77
2021/12/20 21:49:03;;;;;;;17.60;11.40;;;;;;;-2.89;76.15;101711.19;8546762;33;20574;-77
2021/12/20 21:54:06;;;;;;;13.17;9.23;;;;;;;-2.96;76.07;101718.25;8549341;33;20872;-77
2021/12/20 21:59:09;;;;;;;16.23;9.63;;;;;;;-2.89;75.95;101706.78;8541243;33;20563;-77
2021/12/20 22:04:14;;;;;;;17.53;10.83;;;;;;;-2.85;75.98;101711.19;8518332;33;20434;-77
2021/12/20 22:09:17;;;;;;;16.03;9.97;;;;;;;-2.92;75.72;101712.06;8540311;33;20708;-77
2021/12/20 22:14:20;;;;;;;16.43;9.87;;;;;;;-2.89;75.82;101711.19;8534446;33;20152;-77
2021/12/20 22:19:24;;;;;;;19.30;10.30;;;;;;;-2.87;75.73;101714.69;8524070;33;20152;-77
2021/12/20 22:24:27;;;;;;;16.40;10.57;;;;;;;-2.86;75.68;101705.91;8540161;33;20435;-77
2021/12/20 22:29:30;;;;;;;16.87;10.53;;;;;;;-2.90;75.73;101720.84;8532379;33;20527;-77
2021/12/20 22:34:35;;;;;;;19.00;11.13;;;;;;;-2.79;75.83;101710.28;8526755;33;20481;-77
2021/12/20 22:39:38;;;;;;;18.90;11.27;;;;;;;-2.78;75.59;101726.03;8526820;33;20504;-77
2021/12/20 22:44:41;;;;;;;19.90;12.63;;;;;;;-2.77;75.88;101719.00;8533162;33;20424;-77
2021/12/20 22:49:46;;;;;;;22.07;13.73;;;;;;;-2.76;75.81;101718.16;8529602;33;20614;-77
2021/12/20 22:54:50;;;;;;;29.87;16.97;;;;;;;-2.83;75.72;101716.41;8541031;33;21029;-77
2021/12/20 22:59:53;;;;;;;26.37;15.60;;;;;;;-2.91;75.58;101697.16;8541989;33;20145;-77
2021/12/20 23:04:57;;;;;;;18.73;12.53;;;;;;;-2.98;75.96;101707.72;8544208;33;20211;-77
2021/12/20 23:10:04;;;;;;;19.83;13.03;;;;;;;-2.92;76.28;101703.31;8531473;33;20981;-77
2021/12/20 23:15:08;;;;;;;20.83;11.87;;;;;;;-2.84;76.09;101702.41;8527027;33;20215;-77
2021/12/20 23:20:13;;;;;;;24.40;13.83;;;;;;;-2.81;76.42;101704.13;8526790;33;20507;-77
2021/12/20 23:25:17;;;;;;;24.17;13.73;;;;;;;-2.83;76.17;101701.50;8526672;33;20532;-77
2021/12/20 23:30:20;;;;;;;20.00;13.40;;;;;;;-2.90;76.19;101706.81;8526411;33;21083;-77
2021/12/20 23:35:25;;;;;;;22.83;14.03;;;;;;;-3.00;76.36;101703.34;8525233;33;21108;-77
2021/12/20 23:40:29;;;;;;;23.07;13.53;;;;;;;-3.11;75.93;101703.38;8500496;33;20176;-77